sensor_id;sensor_type;location;lat;lon;timestamp;P1;durP1;ratioP1;P2;durP2;ratioP2
20044;SDS011;10183;47.808;9.476;2023-12-20T00:02:25;23.73;;;21.43;;
20044;SDS011;10183;47.808;9.476;2023-12-20T00:05:11;22.43;;;20.40;;
20044;SDS011;10183;47.808;9.476;2023-12-20T00:07:58;23.93;;;21.67;;
20044;SDS011;10183;47.808;9.476;2023-12-20T00:10:44;24.93;;;22.53;;
20044;SDS011;10183;47.808;9.476;2023-12-20T00:13:30;23.90;;;21.70;;
20044;SDS011;10183;47.808;9.476;2023-12-20T00:16:16;24.67;;;22.37;;
20044;SDS011;10183;47.808;9.476;2023-12-20T00:19:02;24.23;;;22.03;;
20044;SDS011;10183;47.808;9.476;2023-12-20T00:21:48;24.07;;;21.77;;
20044;SDS011;10183;47.808;9.476;2023-12-20T00:24:34;22.70;;;20.70;;
20044;SDS011;10183;47.808;9.476;2023-12-20T00:27:20;22.93;;;20.83;;
20044;SDS011;10183;47.808;9.476;2023-12-20T00:30:06;23.40;;;21.13;;
20044;SDS011;10183;47.808;9.476;2023-12-20T00:32:53;22.13;;;20.03;;
20044;SDS011;10183;47.808;9.476;2023-12-20T00:35:39;22.10;;;20.10;;
20044;SDS011;10183;47.808;9.476;2023-12-20T00:38:25;22.80;;;20.60;;
20044;SDS011;10183;47.808;9.476;2023-12-20T00:41:10;21.97;;;19.97;;
20044;SDS011;10183;47.808;9.476;2023-12-20T00:43:56;21.70;;;19.70;;
20044;SDS011;10183;47.808;9.476;2023-12-20T00:46:42;22.03;;;19.90;;
20044;SDS011;10183;47.808;9.476;2023-12-20T00:49:28;21.60;;;19.60;;
20044;SDS011;10183;47.808;9.476;2023-12-20T00:52:14;21.30;;;19.40;;
20044;SDS011;10183;47.808;9.476;2023-12-20T00:55:02;21.57;;;19.57;;
20044;SDS011;10183;47.808;9.476;2023-12-20T00:57:49;21.37;;;19.47;;
20044;SDS011;10183;47.808;9.476;2023-12-20T01:00:35;21.10;;;19.30;;
20044;SDS011;10183;47.808;9.476;2023-12-20T01:03:21;21.17;;;19.27;;
20044;SDS011;10183;47.808;9.476;2023-12-20T01:06:07;21.57;;;19.67;;
20044;SDS011;10183;47.808;9.476;2023-12-20T01:08:53;21.60;;;19.70;;
20044;SDS011;10183;47.808;9.476;2023-12-20T01:11:38;21.90;;;19.90;;
20044;SDS011;10183;47.808;9.476;2023-12-20T01:14:24;22.20;;;20.10;;
20044;SDS011;10183;47.808;9.476;2023-12-20T01:17:11;21.07;;;19.23;;
20044;SDS011;10183;47.808;9.476;2023-12-20T01:19:57;21.70;;;19.80;;
20044;SDS011;10183;47.808;9.476;2023-12-20T01:22:43;21.27;;;19.30;;
20044;SDS011;10183;47.808;9.476;2023-12-20T01:25:31;21.37;;;19.37;;
20044;SDS011;10183;47.808;9.476;2023-12-20T01:28:17;21.47;;;19.47;;
20044;SDS011;10183;47.808;9.476;2023-12-20T01:31:03;20.73;;;18.93;;
20044;SDS011;10183;47.808;9.476;2023-12-20T01:33:49;20.93;;;19.00;;
20044;SDS011;10183;47.808;9.476;2023-12-20T01:36:35;21.03;;;19.13;;
20044;SDS011;10183;47.808;9.476;2023-12-20T01:39:21;21.13;;;19.23;;
20044;SDS011;10183;47.808;9.476;2023-12-20T01:42:07;20.47;;;18.67;;
20044;SDS011;10183;47.808;9.476;2023-12-20T01:44:53;20.27;;;18.47;;
20044;SDS011;10183;47.808;9.476;2023-12-20T01:47:39;21.10;;;19.10;;
20044;SDS011;10183;47.808;9.476;2023-12-20T01:50:25;20.63;;;18.77;;
20044;SDS011;10183;47.808;9.476;2023-12-20T01:53:12;20.53;;;18.73;;
20044;SDS011;10183;47.808;9.476;2023-12-20T01:55:59;21.17;;;19.27;;
20044;SDS011;10183;47.808;9.476;2023-12-20T01:58:46;21.43;;;19.43;;
20044;SDS011;10183;47.808;9.476;2023-12-20T02:01:33;21.43;;;19.53;;
20044;SDS011;10183;47.808;9.476;2023-12-20T02:04:19;21.17;;;19.27;;
20044;SDS011;10183;47.808;9.476;2023-12-20T02:07:05;21.40;;;19.50;;
20044;SDS011;10183;47.808;9.476;2023-12-20T02:09:53;21.80;;;19.80;;
20044;SDS011;10183;47.808;9.476;2023-12-20T02:12:40;21.57;;;19.57;;
20044;SDS011;10183;47.808;9.476;2023-12-20T02:15:26;21.63;;;19.63;;
20044;SDS011;10183;47.808;9.476;2023-12-20T02:18:12;22.17;;;20.20;;
20044;SDS011;10183;47.808;9.476;2023-12-20T02:21:00;22.07;;;20.07;;
20044;SDS011;10183;47.808;9.476;2023-12-20T02:23:46;23.43;;;21.13;;
20044;SDS011;10183;47.808;9.476;2023-12-20T02:26:32;22.90;;;20.70;;
20044;SDS011;10183;47.808;9.476;2023-12-20T02:29:19;22.20;;;20.10;;
20044;SDS011;10183;47.808;9.476;2023-12-20T02:32:05;22.50;;;20.40;;
20044;SDS011;10183;47.808;9.476;2023-12-20T02:34:51;23.20;;;21.00;;
20044;SDS011;10183;47.808;9.476;2023-12-20T02:37:37;25.17;;;22.47;;
20044;SDS011;10183;47.808;9.476;2023-12-20T02:40:23;23.60;;;21.30;;
20044;SDS011;10183;47.808;9.476;2023-12-20T02:43:09;24.03;;;21.73;;
20044;SDS011;10183;47.808;9.476;2023-12-20T02:45:55;23.53;;;21.33;;
20044;SDS011;10183;47.808;9.476;2023-12-20T02:48:41;23.60;;;21.33;;
20044;SDS011;10183;47.808;9.476;2023-12-20T02:51:27;25.37;;;23.00;;
20044;SDS011;10183;47.808;9.476;2023-12-20T02:54:13;24.83;;;22.60;;
20044;SDS011;10183;47.808;9.476;2023-12-20T02:56:59;24.40;;;21.93;;
20044;SDS011;10183;47.808;9.476;2023-12-20T02:59:45;26.77;;;24.27;;
20044;SDS011;10183;47.808;9.476;2023-12-20T03:02:30;26.93;;;24.33;;
20044;SDS011;10183;47.808;9.476;2023-12-20T03:05:16;26.43;;;23.80;;
20044;SDS011;10183;47.808;9.476;2023-12-20T03:08:02;26.87;;;24.10;;
20044;SDS011;10183;47.808;9.476;2023-12-20T03:10:48;27.20;;;24.50;;
20044;SDS011;10183;47.808;9.476;2023-12-20T03:13:35;27.57;;;24.90;;
20044;SDS011;10183;47.808;9.476;2023-12-20T03:16:21;26.93;;;24.33;;
20044;SDS011;10183;47.808;9.476;2023-12-20T03:19:07;27.10;;;24.30;;
20044;SDS011;10183;47.808;9.476;2023-12-20T03:21:53;27.40;;;24.40;;
20044;SDS011;10183;47.808;9.476;2023-12-20T03:24:39;28.70;;;25.73;;
20044;SDS011;10183;47.808;9.476;2023-12-20T03:27:24;26.37;;;23.87;;
20044;SDS011;10183;47.808;9.476;2023-12-20T03:30:10;26.80;;;24.00;;
20044;SDS011;10183;47.808;9.476;2023-12-20T03:32:56;25.17;;;22.47;;
20044;SDS011;10183;47.808;9.476;2023-12-20T03:35:42;27.53;;;23.00;;
20044;SDS011;10183;47.808;9.476;2023-12-20T03:38:28;25.93;;;23.30;;
20044;SDS011;10183;47.808;9.476;2023-12-20T03:41:14;27.87;;;24.97;;
20044;SDS011;10183;47.808;9.476;2023-12-20T03:44:01;26.23;;;23.63;;
20044;SDS011;10183;47.808;9.476;2023-12-20T03:46:47;26.73;;;23.93;;
20044;SDS011;10183;47.808;9.476;2023-12-20T03:49:34;26.17;;;23.30;;
20044;SDS011;10183;47.808;9.476;2023-12-20T03:52:22;27.10;;;24.20;;
20044;SDS011;10183;47.808;9.476;2023-12-20T03:55:08;26.47;;;23.70;;
20044;SDS011;10183;47.808;9.476;2023-12-20T03:57:54;28.57;;;25.80;;
20044;SDS011;10183;47.808;9.476;2023-12-20T04:00:40;29.57;;;25.83;;
20044;SDS011;10183;47.808;9.476;2023-12-20T04:03:26;28.23;;;24.00;;
20044;SDS011;10183;47.808;9.476;2023-12-20T04:06:16;28.30;;;24.53;;
20044;SDS011;10183;47.808;9.476;2023-12-20T04:09:03;30.70;;;25.10;;
20044;SDS011;10183;47.808;9.476;2023-12-20T04:11:50;31.43;;;26.47;;
20044;SDS011;10183;47.808;9.476;2023-12-20T04:14:36;29.03;;;25.20;;
20044;SDS011;10183;47.808;9.476;2023-12-20T04:17:22;30.40;;;25.07;;
20044;SDS011;10183;47.808;9.476;2023-12-20T04:20:08;31.80;;;25.07;;
20044;SDS011;10183;47.808;9.476;2023-12-20T04:22:54;36.73;;;26.13;;
20044;SDS011;10183;47.808;9.476;2023-12-20T04:25:40;37.97;;;27.37;;
20044;SDS011;10183;47.808;9.476;2023-12-20T04:28:26;34.50;;;27.40;;
20044;SDS011;10183;47.808;9.476;2023-12-20T04:31:15;37.70;;;27.83;;
20044;SDS011;10183;47.808;9.476;2023-12-20T04:34:01;41.20;;;28.40;;
20044;SDS011;10183;47.808;9.476;2023-12-20T04:36:47;39.23;;;28.73;;
20044;SDS011;10183;47.808;9.476;2023-12-20T04:39:33;42.57;;;29.83;;
20044;SDS011;10183;47.808;9.476;2023-12-20T04:42:19;38.43;;;28.83;;
20044;SDS011;10183;47.808;9.476;2023-12-20T04:45:05;39.10;;;29.23;;
20044;SDS011;10183;47.808;9.476;2023-12-20T04:47:51;37.20;;;28.67;;
20044;SDS011;10183;47.808;9.476;2023-12-20T04:50:37;40.43;;;26.43;;
20044;SDS011;10183;47.808;9.476;2023-12-20T04:53:23;38.13;;;27.87;;
20044;SDS011;10183;47.808;9.476;2023-12-20T04:56:09;36.57;;;27.53;;
20044;SDS011;10183;47.808;9.476;2023-12-20T04:58:55;36.27;;;26.77;;
20044;SDS011;10183;47.808;9.476;2023-12-20T05:01:41;37.23;;;27.10;;
20044;SDS011;10183;47.808;9.476;2023-12-20T05:04:27;38.63;;;28.53;;
20044;SDS011;10183;47.808;9.476;2023-12-20T05:07:13;37.97;;;27.13;;
20044;SDS011;10183;47.808;9.476;2023-12-20T05:09:59;38.60;;;29.10;;
20044;SDS011;10183;47.808;9.476;2023-12-20T05:12:45;43.00;;;29.00;;
20044;SDS011;10183;47.808;9.476;2023-12-20T05:15:31;41.80;;;29.83;;
20044;SDS011;10183;47.808;9.476;2023-12-20T05:18:17;41.87;;;29.23;;
20044;SDS011;10183;47.808;9.476;2023-12-20T05:21:03;43.60;;;27.33;;
20044;SDS011;10183;47.808;9.476;2023-12-20T05:23:49;43.07;;;29.03;;
20044;SDS011;10183;47.808;9.476;2023-12-20T05:26:35;46.30;;;29.50;;
20044;SDS011;10183;47.808;9.476;2023-12-20T05:29:21;45.23;;;29.60;;
20044;SDS011;10183;47.808;9.476;2023-12-20T05:32:07;41.17;;;29.43;;
20044;SDS011;10183;47.808;9.476;2023-12-20T05:34:53;41.93;;;28.23;;
20044;SDS011;10183;47.808;9.476;2023-12-20T05:37:39;43.63;;;26.37;;
20044;SDS011;10183;47.808;9.476;2023-12-20T05:40:25;40.97;;;29.73;;
20044;SDS011;10183;47.808;9.476;2023-12-20T05:43:11;43.57;;;28.77;;
20044;SDS011;10183;47.808;9.476;2023-12-20T05:45:57;42.77;;;30.57;;
20044;SDS011;10183;47.808;9.476;2023-12-20T05:48:43;42.60;;;27.37;;
20044;SDS011;10183;47.808;9.476;2023-12-20T05:51:29;36.90;;;27.10;;
20044;SDS011;10183;47.808;9.476;2023-12-20T05:54:16;36.97;;;27.70;;
20044;SDS011;10183;47.808;9.476;2023-12-20T05:57:02;37.10;;;26.43;;
20044;SDS011;10183;47.808;9.476;2023-12-20T05:59:48;33.63;;;26.47;;
20044;SDS011;10183;47.808;9.476;2023-12-20T06:02:34;30.30;;;23.70;;
20044;SDS011;10183;47.808;9.476;2023-12-20T06:05:20;33.83;;;24.70;;
20044;SDS011;10183;47.808;9.476;2023-12-20T06:08:06;33.43;;;27.57;;
20044;SDS011;10183;47.808;9.476;2023-12-20T06:10:52;34.20;;;27.37;;
20044;SDS011;10183;47.808;9.476;2023-12-20T06:13:38;33.83;;;25.40;;
20044;SDS011;10183;47.808;9.476;2023-12-20T06:16:24;33.23;;;25.43;;
20044;SDS011;10183;47.808;9.476;2023-12-20T06:19:10;36.40;;;26.00;;
20044;SDS011;10183;47.808;9.476;2023-12-20T06:21:56;34.17;;;25.77;;
20044;SDS011;10183;47.808;9.476;2023-12-20T06:24:41;32.77;;;26.97;;
20044;SDS011;10183;47.808;9.476;2023-12-20T06:27:28;38.27;;;27.93;;
20044;SDS011;10183;47.808;9.476;2023-12-20T06:30:15;37.90;;;27.20;;
20044;SDS011;10183;47.808;9.476;2023-12-20T06:33:01;35.03;;;25.83;;
20044;SDS011;10183;47.808;9.476;2023-12-20T06:35:48;40.90;;;30.53;;
20044;SDS011;10183;47.808;9.476;2023-12-20T06:38:34;39.27;;;28.37;;
20044;SDS011;10183;47.808;9.476;2023-12-20T06:41:20;39.13;;;28.00;;
20044;SDS011;10183;47.808;9.476;2023-12-20T06:44:06;40.97;;;29.70;;
20044;SDS011;10183;47.808;9.476;2023-12-20T06:46:52;39.63;;;30.07;;
20044;SDS011;10183;47.808;9.476;2023-12-20T06:49:38;42.70;;;30.17;;
20044;SDS011;10183;47.808;9.476;2023-12-20T06:52:24;39.20;;;25.27;;
20044;SDS011;10183;47.808;9.476;2023-12-20T06:55:10;43.17;;;25.27;;
20044;SDS011;10183;47.808;9.476;2023-12-20T06:57:56;40.73;;;25.43;;
20044;SDS011;10183;47.808;9.476;2023-12-20T07:00:42;38.83;;;22.90;;
20044;SDS011;10183;47.808;9.476;2023-12-20T07:03:28;44.67;;;28.10;;
20044;SDS011;10183;47.808;9.476;2023-12-20T07:06:14;51.00;;;28.67;;
20044;SDS011;10183;47.808;9.476;2023-12-20T07:09:01;46.93;;;25.87;;
20044;SDS011;10183;47.808;9.476;2023-12-20T07:11:47;51.03;;;28.63;;
20044;SDS011;10183;47.808;9.476;2023-12-20T07:14:33;45.60;;;25.37;;
20044;SDS011;10183;47.808;9.476;2023-12-20T07:17:19;43.13;;;24.13;;
20044;SDS011;10183;47.808;9.476;2023-12-20T07:20:07;46.80;;;22.63;;
20044;SDS011;10183;47.808;9.476;2023-12-20T07:22:56;43.27;;;25.37;;
20044;SDS011;10183;47.808;9.476;2023-12-20T07:25:42;48.23;;;26.50;;
20044;SDS011;10183;47.808;9.476;2023-12-20T07:28:27;38.60;;;18.60;;
20044;SDS011;10183;47.808;9.476;2023-12-20T07:31:15;42.03;;;24.20;;
20044;SDS011;10183;47.808;9.476;2023-12-20T07:34:01;47.27;;;26.93;;
20044;SDS011;10183;47.808;9.476;2023-12-20T07:36:47;45.63;;;27.87;;
20044;SDS011;10183;47.808;9.476;2023-12-20T07:39:33;42.77;;;25.23;;
20044;SDS011;10183;47.808;9.476;2023-12-20T07:42:19;47.60;;;29.47;;
20044;SDS011;10183;47.808;9.476;2023-12-20T07:45:07;52.20;;;29.97;;
20044;SDS011;10183;47.808;9.476;2023-12-20T07:47:54;39.70;;;24.60;;
20044;SDS011;10183;47.808;9.476;2023-12-20T07:50:40;45.33;;;26.73;;
20044;SDS011;10183;47.808;9.476;2023-12-20T07:53:26;43.87;;;24.80;;
20044;SDS011;10183;47.808;9.476;2023-12-20T07:56:16;32.90;;;20.97;;
20044;SDS011;10183;47.808;9.476;2023-12-20T07:59:02;44.23;;;24.67;;
20044;SDS011;10183;47.808;9.476;2023-12-20T08:01:48;34.27;;;18.80;;
20044;SDS011;10183;47.808;9.476;2023-12-20T08:04:34;39.87;;;23.80;;
20044;SDS011;10183;47.808;9.476;2023-12-20T08:07:20;37.03;;;19.70;;
20044;SDS011;10183;47.808;9.476;2023-12-20T08:10:06;40.83;;;21.47;;
20044;SDS011;10183;47.808;9.476;2023-12-20T08:12:53;34.20;;;19.30;;
20044;SDS011;10183;47.808;9.476;2023-12-20T08:15:38;34.33;;;21.03;;
20044;SDS011;10183;47.808;9.476;2023-12-20T08:18:24;35.10;;;18.87;;
20044;SDS011;10183;47.808;9.476;2023-12-20T08:21:10;40.10;;;22.50;;
20044;SDS011;10183;47.808;9.476;2023-12-20T08:23:57;44.07;;;23.20;;
20044;SDS011;10183;47.808;9.476;2023-12-20T08:26:42;44.93;;;22.20;;
20044;SDS011;10183;47.808;9.476;2023-12-20T08:29:28;51.53;;;27.30;;
20044;SDS011;10183;47.808;9.476;2023-12-20T08:32:14;55.30;;;27.33;;
20044;SDS011;10183;47.808;9.476;2023-12-20T08:35:00;50.27;;;24.33;;
20044;SDS011;10183;47.808;9.476;2023-12-20T08:37:46;55.10;;;26.30;;
20044;SDS011;10183;47.808;9.476;2023-12-20T08:40:32;60.20;;;29.57;;
20044;SDS011;10183;47.808;9.476;2023-12-20T08:43:18;62.60;;;30.67;;
20044;SDS011;10183;47.808;9.476;2023-12-20T08:46:04;66.73;;;32.63;;
20044;SDS011;10183;47.808;9.476;2023-12-20T08:48:50;68.80;;;34.80;;
20044;SDS011;10183;47.808;9.476;2023-12-20T08:51:36;70.53;;;35.33;;
20044;SDS011;10183;47.808;9.476;2023-12-20T08:54:25;41.00;;;20.03;;
20044;SDS011;10183;47.808;9.476;2023-12-20T08:57:11;73.47;;;37.80;;
20044;SDS011;10183;47.808;9.476;2023-12-20T08:59:57;69.20;;;31.30;;
20044;SDS011;10183;47.808;9.476;2023-12-20T09:02:43;58.13;;;29.63;;
20044;SDS011;10183;47.808;9.476;2023-12-20T09:05:29;40.20;;;21.47;;
20044;SDS011;10183;47.808;9.476;2023-12-20T09:08:15;70.17;;;35.80;;
20044;SDS011;10183;47.808;9.476;2023-12-20T09:11:01;70.23;;;37.47;;
20044;SDS011;10183;47.808;9.476;2023-12-20T09:13:47;69.10;;;35.10;;
20044;SDS011;10183;47.808;9.476;2023-12-20T09:16:33;65.00;;;33.90;;
20044;SDS011;10183;47.808;9.476;2023-12-20T09:19:19;68.37;;;31.47;;
20044;SDS011;10183;47.808;9.476;2023-12-20T09:22:05;48.60;;;23.13;;
20044;SDS011;10183;47.808;9.476;2023-12-20T09:24:52;41.57;;;19.00;;
20044;SDS011;10183;47.808;9.476;2023-12-20T09:27:38;59.13;;;28.73;;
20044;SDS011;10183;47.808;9.476;2023-12-20T09:30:24;54.97;;;23.90;;
20044;SDS011;10183;47.808;9.476;2023-12-20T09:33:11;59.23;;;28.73;;
20044;SDS011;10183;47.808;9.476;2023-12-20T09:35:57;41.93;;;24.30;;
20044;SDS011;10183;47.808;9.476;2023-12-20T09:38:44;55.67;;;28.83;;
20044;SDS011;10183;47.808;9.476;2023-12-20T09:41:31;42.50;;;23.37;;
20044;SDS011;10183;47.808;9.476;2023-12-20T09:44:19;47.07;;;26.00;;
20044;SDS011;10183;47.808;9.476;2023-12-20T09:47:05;50.60;;;29.10;;
20044;SDS011;10183;47.808;9.476;2023-12-20T09:49:52;43.57;;;25.97;;
20044;SDS011;10183;47.808;9.476;2023-12-20T09:52:39;51.33;;;28.03;;
20044;SDS011;10183;47.808;9.476;2023-12-20T09:55:27;47.57;;;24.90;;
20044;SDS011;10183;47.808;9.476;2023-12-20T09:58:15;46.37;;;24.00;;
20044;SDS011;10183;47.808;9.476;2023-12-20T10:01:01;43.30;;;26.03;;
20044;SDS011;10183;47.808;9.476;2023-12-20T10:03:48;34.30;;;22.27;;
20044;SDS011;10183;47.808;9.476;2023-12-20T10:06:36;33.83;;;22.17;;
20044;SDS011;10183;47.808;9.476;2023-12-20T10:09:23;37.87;;;24.60;;
20044;SDS011;10183;47.808;9.476;2023-12-20T10:12:09;33.83;;;23.47;;
20044;SDS011;10183;47.808;9.476;2023-12-20T10:14:56;26.27;;;18.80;;
20044;SDS011;10183;47.808;9.476;2023-12-20T10:17:43;25.13;;;19.37;;
20044;SDS011;10183;47.808;9.476;2023-12-20T10:20:29;25.93;;;21.30;;
20044;SDS011;10183;47.808;9.476;2023-12-20T10:23:15;25.37;;;19.60;;
20044;SDS011;10183;47.808;9.476;2023-12-20T10:26:03;24.83;;;18.73;;
20044;SDS011;10183;47.808;9.476;2023-12-20T10:28:56;22.17;;;18.47;;
20044;SDS011;10183;47.808;9.476;2023-12-20T10:31:45;21.50;;;18.53;;
20044;SDS011;10183;47.808;9.476;2023-12-20T10:34:32;19.43;;;16.67;;
20044;SDS011;10183;47.808;9.476;2023-12-20T10:37:18;22.03;;;19.73;;
20044;SDS011;10183;47.808;9.476;2023-12-20T10:40:04;22.83;;;20.37;;
20044;SDS011;10183;47.808;9.476;2023-12-20T10:42:51;22.23;;;19.93;;
20044;SDS011;10183;47.808;9.476;2023-12-20T10:45:38;23.00;;;20.80;;
20044;SDS011;10183;47.808;9.476;2023-12-20T10:48:24;21.07;;;19.00;;
20044;SDS011;10183;47.808;9.476;2023-12-20T10:51:15;21.27;;;19.40;;
20044;SDS011;10183;47.808;9.476;2023-12-20T10:54:03;19.80;;;17.83;;
20044;SDS011;10183;47.808;9.476;2023-12-20T10:56:50;24.33;;;22.23;;
20044;SDS011;10183;47.808;9.476;2023-12-20T10:59:37;20.80;;;19.00;;
20044;SDS011;10183;47.808;9.476;2023-12-20T11:02:24;23.63;;;21.47;;
20044;SDS011;10183;47.808;9.476;2023-12-20T11:08:28;20.50;;;18.90;;
20044;SDS011;10183;47.808;9.476;2023-12-20T11:14:22;20.47;;;18.77;;
20044;SDS011;10183;47.808;9.476;2023-12-20T11:17:13;19.77;;;18.17;;
20044;SDS011;10183;47.808;9.476;2023-12-20T11:20:05;21.97;;;20.10;;
20044;SDS011;10183;47.808;9.476;2023-12-20T11:22:53;20.20;;;18.70;;
20044;SDS011;10183;47.808;9.476;2023-12-20T11:25:51;18.70;;;17.10;;
20044;SDS011;10183;47.808;9.476;2023-12-20T11:28:39;20.27;;;18.40;;
20044;SDS011;10183;47.808;9.476;2023-12-20T11:31:24;18.83;;;17.43;;
20044;SDS011;10183;47.808;9.476;2023-12-20T11:34:13;23.93;;;22.13;;
20044;SDS011;10183;47.808;9.476;2023-12-20T11:37:00;22.93;;;21.23;;
20044;SDS011;10183;47.808;9.476;2023-12-20T11:40:01;23.20;;;21.50;;
20044;SDS011;10183;47.808;9.476;2023-12-20T11:42:54;27.87;;;25.67;;
20044;SDS011;10183;47.808;9.476;2023-12-20T11:45:48;25.87;;;24.03;;
20044;SDS011;10183;47.808;9.476;2023-12-20T11:48:37;25.63;;;23.83;;
20044;SDS011;10183;47.808;9.476;2023-12-20T11:51:24;30.67;;;28.17;;
20044;SDS011;10183;47.808;9.476;2023-12-20T11:54:10;29.23;;;26.80;;
20044;SDS011;10183;47.808;9.476;2023-12-20T11:56:56;38.87;;;35.30;;
20044;SDS011;10183;47.808;9.476;2023-12-20T11:59:42;41.13;;;37.20;;
20044;SDS011;10183;47.808;9.476;2023-12-20T12:02:29;36.40;;;33.00;;
20044;SDS011;10183;47.808;9.476;2023-12-20T12:05:15;32.53;;;29.67;;
20044;SDS011;10183;47.808;9.476;2023-12-20T12:08:02;36.00;;;32.70;;
20044;SDS011;10183;47.808;9.476;2023-12-20T12:10:48;36.93;;;33.53;;
20044;SDS011;10183;47.808;9.476;2023-12-20T12:13:34;35.37;;;32.07;;
20044;SDS011;10183;47.808;9.476;2023-12-20T12:16:20;35.47;;;32.27;;
20044;SDS011;10183;47.808;9.476;2023-12-20T12:19:06;37.03;;;33.97;;
20044;SDS011;10183;47.808;9.476;2023-12-20T12:22:11;32.20;;;29.50;;
20044;SDS011;10183;47.808;9.476;2023-12-20T12:24:59;30.07;;;27.73;;
20044;SDS011;10183;47.808;9.476;2023-12-20T12:27:55;30.30;;;27.90;;
20044;SDS011;10183;47.808;9.476;2023-12-20T12:30:43;30.20;;;27.77;;
20044;SDS011;10183;47.808;9.476;2023-12-20T12:33:41;28.80;;;26.60;;
20044;SDS011;10183;47.808;9.476;2023-12-20T12:36:27;27.20;;;24.90;;
20044;SDS011;10183;47.808;9.476;2023-12-20T12:39:14;26.13;;;24.13;;
20044;SDS011;10183;47.808;9.476;2023-12-20T12:42:03;27.90;;;25.80;;
20044;SDS011;10183;47.808;9.476;2023-12-20T12:44:49;26.37;;;24.47;;
20044;SDS011;10183;47.808;9.476;2023-12-20T12:47:36;27.63;;;25.57;;
20044;SDS011;10183;47.808;9.476;2023-12-20T12:50:22;30.33;;;27.93;;
20044;SDS011;10183;47.808;9.476;2023-12-20T12:53:08;25.50;;;23.60;;
20044;SDS011;10183;47.808;9.476;2023-12-20T12:55:54;23.30;;;21.60;;
20044;SDS011;10183;47.808;9.476;2023-12-20T12:58:41;19.77;;;18.37;;
20044;SDS011;10183;47.808;9.476;2023-12-20T13:01:27;19.30;;;18.00;;
20044;SDS011;10183;47.808;9.476;2023-12-20T13:04:13;22.23;;;20.53;;
20044;SDS011;10183;47.808;9.476;2023-12-20T13:06:59;26.83;;;24.30;;
20044;SDS011;10183;47.808;9.476;2023-12-20T13:09:45;27.07;;;24.77;;
20044;SDS011;10183;47.808;9.476;2023-12-20T13:12:31;28.17;;;26.00;;
20044;SDS011;10183;47.808;9.476;2023-12-20T13:15:17;29.00;;;26.80;;
20044;SDS011;10183;47.808;9.476;2023-12-20T13:18:03;29.60;;;27.03;;
20044;SDS011;10183;47.808;9.476;2023-12-20T13:20:51;26.43;;;24.33;;
20044;SDS011;10183;47.808;9.476;2023-12-20T13:23:37;28.33;;;26.03;;
20044;SDS011;10183;47.808;9.476;2023-12-20T13:26:23;31.67;;;28.97;;
20044;SDS011;10183;47.808;9.476;2023-12-20T13:29:09;27.80;;;25.37;;
20044;SDS011;10183;47.808;9.476;2023-12-20T13:31:55;31.00;;;28.50;;
20044;SDS011;10183;47.808;9.476;2023-12-20T13:34:42;28.93;;;26.63;;
20044;SDS011;10183;47.808;9.476;2023-12-20T13:37:27;27.33;;;25.03;;
20044;SDS011;10183;47.808;9.476;2023-12-20T13:40:14;30.17;;;27.70;;
20044;SDS011;10183;47.808;9.476;2023-12-20T13:43:00;30.63;;;27.97;;
20044;SDS011;10183;47.808;9.476;2023-12-20T13:45:48;27.77;;;25.47;;
20044;SDS011;10183;47.808;9.476;2023-12-20T13:48:34;27.97;;;25.67;;
20044;SDS011;10183;47.808;9.476;2023-12-20T13:51:20;27.03;;;24.53;;
20044;SDS011;10183;47.808;9.476;2023-12-20T13:54:06;30.27;;;27.57;;
20044;SDS011;10183;47.808;9.476;2023-12-20T13:56:52;32.07;;;29.47;;
20044;SDS011;10183;47.808;9.476;2023-12-20T13:59:38;29.30;;;26.80;;
20044;SDS011;10183;47.808;9.476;2023-12-20T14:02:24;29.63;;;27.13;;
20044;SDS011;10183;47.808;9.476;2023-12-20T14:05:12;28.63;;;26.20;;
20044;SDS011;10183;47.808;9.476;2023-12-20T14:07:59;25.77;;;23.40;;
20044;SDS011;10183;47.808;9.476;2023-12-20T14:10:45;29.63;;;27.03;;
20044;SDS011;10183;47.808;9.476;2023-12-20T14:13:31;30.43;;;27.83;;
20044;SDS011;10183;47.808;9.476;2023-12-20T14:16:17;32.17;;;29.43;;
20044;SDS011;10183;47.808;9.476;2023-12-20T14:19:04;31.33;;;28.53;;
20044;SDS011;10183;47.808;9.476;2023-12-20T14:21:52;31.97;;;29.17;;
20044;SDS011;10183;47.808;9.476;2023-12-20T14:24:38;34.13;;;30.93;;
20044;SDS011;10183;47.808;9.476;2023-12-20T14:27:24;38.50;;;34.90;;
20044;SDS011;10183;47.808;9.476;2023-12-20T14:30:13;38.23;;;34.60;;
20044;SDS011;10183;47.808;9.476;2023-12-20T14:32:59;40.17;;;36.53;;
20044;SDS011;10183;47.808;9.476;2023-12-20T14:35:46;40.60;;;36.90;;
20044;SDS011;10183;47.808;9.476;2023-12-20T14:38:32;39.57;;;36.03;;
20044;SDS011;10183;47.808;9.476;2023-12-20T14:41:17;40.60;;;36.87;;
20044;SDS011;10183;47.808;9.476;2023-12-20T14:44:04;37.13;;;33.60;;
20044;SDS011;10183;47.808;9.476;2023-12-20T14:46:50;36.73;;;33.33;;
20044;SDS011;10183;47.808;9.476;2023-12-20T14:49:36;32.53;;;29.33;;
20044;SDS011;10183;47.808;9.476;2023-12-20T14:52:22;32.43;;;29.20;;
20044;SDS011;10183;47.808;9.476;2023-12-20T14:55:09;35.17;;;31.97;;
20044;SDS011;10183;47.808;9.476;2023-12-20T14:57:55;30.13;;;27.13;;
20044;SDS011;10183;47.808;9.476;2023-12-20T15:00:40;31.00;;;27.90;;
20044;SDS011;10183;47.808;9.476;2023-12-20T15:03:28;24.07;;;21.50;;
20044;SDS011;10183;47.808;9.476;2023-12-20T15:06:15;23.90;;;21.60;;
20044;SDS011;10183;47.808;9.476;2023-12-20T15:09:01;23.67;;;21.17;;
20044;SDS011;10183;47.808;9.476;2023-12-20T15:11:53;25.90;;;23.60;;
20044;SDS011;10183;47.808;9.476;2023-12-20T15:14:39;29.43;;;26.73;;
20044;SDS011;10183;47.808;9.476;2023-12-20T15:17:25;28.40;;;25.80;;
20044;SDS011;10183;47.808;9.476;2023-12-20T15:20:12;27.67;;;25.47;;
20044;SDS011;10183;47.808;9.476;2023-12-20T15:22:59;28.47;;;24.50;;
20044;SDS011;10183;47.808;9.476;2023-12-20T15:25:52;27.40;;;24.60;;
20044;SDS011;10183;47.808;9.476;2023-12-20T15:28:38;28.83;;;25.83;;
20044;SDS011;10183;47.808;9.476;2023-12-20T15:31:24;34.13;;;30.53;;
20044;SDS011;10183;47.808;9.476;2023-12-20T15:34:12;31.43;;;28.13;;
20044;SDS011;10183;47.808;9.476;2023-12-20T15:36:58;31.50;;;28.70;;
20044;SDS011;10183;47.808;9.476;2023-12-20T15:39:46;32.60;;;29.80;;
20044;SDS011;10183;47.808;9.476;2023-12-20T15:42:32;33.23;;;30.33;;
20044;SDS011;10183;47.808;9.476;2023-12-20T15:45:21;32.27;;;29.70;;
20044;SDS011;10183;47.808;9.476;2023-12-20T15:48:07;29.50;;;27.40;;
20044;SDS011;10183;47.808;9.476;2023-12-20T15:50:56;23.53;;;20.30;;
20044;SDS011;10183;47.808;9.476;2023-12-20T15:53:42;22.20;;;20.03;;
20044;SDS011;10183;47.808;9.476;2023-12-20T15:56:28;23.40;;;21.10;;
20044;SDS011;10183;47.808;9.476;2023-12-20T15:59:14;22.83;;;20.60;;
20044;SDS011;10183;47.808;9.476;2023-12-20T16:02:00;22.93;;;20.63;;
20044;SDS011;10183;47.808;9.476;2023-12-20T16:04:48;22.47;;;20.33;;
20044;SDS011;10183;47.808;9.476;2023-12-20T16:07:34;22.43;;;20.43;;
20044;SDS011;10183;47.808;9.476;2023-12-20T16:10:20;25.00;;;22.50;;
20044;SDS011;10183;47.808;9.476;2023-12-20T16:13:06;23.23;;;21.10;;
20044;SDS011;10183;47.808;9.476;2023-12-20T16:15:53;24.03;;;21.83;;
20044;SDS011;10183;47.808;9.476;2023-12-20T16:18:39;25.10;;;21.00;;
20044;SDS011;10183;47.808;9.476;2023-12-20T16:21:25;22.73;;;20.60;;